Terminal Aerodrome Forecast
Issued by NWS

Home | Current Version | Previous Version | Text Only | Print | Product List | Glossary On
Versions: 1 2 3 4 5 6 7 8 9 10 11 12 13 14 15 16 17 18 19 20 21 22 23 24 25 26 27 28 29 30 31 32
000
FTUS44 KLZK 191140
TAFADF
TAF
KADF 191140Z 1912/2012 VRB03KT P6SM VCTS SCT025CB BKN050
      TEMPO 1912/1915 5SM -TSRA BR BKN025CB
     FM191500 23010G18KT P6SM SCT050 BKN250
     FM200000 21008KT P6SM VCTS SCT025 BKN050CB PROB30 2000/2006
      VRB20G40KT 2SM TSRA BR BKN025CB
     FM200600 23006KT P6SM SCT100 OVC250=

USA.gov is the U.S. government's official web portal to all federal, state and local government web resources and services.